Nordborg, Denmark
Current Conditions -  °F | °C
As of 4:50 PM on Friday 31 Oct 2014 (Local Time) from EKSB Reporting Station
Haze Haze  
Wind Chill: 55°   Ceiling: 500
Heat Index: 55°   Visibility: 1.8mi
Dew Point: 54°   Wind: 5mph
Humidity: 94%   Direction: 150°SSE
Pressure: 30.12"   Gusts: NA
Location:  55.06°N, 9.74°E
Report Text: EKSB 311550Z 15004KT 3000 BR BKN005 13/12 Q1020
Loading
Personal Weather Stations






























Interactive Weather Map New forecast layout! Learn more

10-Day Weather Forecast

Advertisements
Track Severe Weather on mobile